createdAt,value
2023-05-10T00:01:53.005Z,13.80
2023-05-10T00:04:26.123Z,13.80
2023-05-10T00:06:57.573Z,13.70
2023-05-10T00:09:29.110Z,13.70
2023-05-10T00:12:00.577Z,13.50
2023-05-10T00:14:32.081Z,13.50
2023-05-10T00:17:03.556Z,13.40
2023-05-10T00:19:34.996Z,13.40
2023-05-10T00:22:06.630Z,13.40
2023-05-10T00:24:38.119Z,13.30
2023-05-10T00:27:09.532Z,13.20
2023-05-10T00:29:41.062Z,13.10
2023-05-10T00:32:12.605Z,13.00
2023-05-10T00:34:44.337Z,12.90
2023-05-10T00:37:16.103Z,12.90
2023-05-10T00:39:47.824Z,12.90
2023-05-10T00:42:19.328Z,12.80
2023-05-10T00:44:50.799Z,12.80
2023-05-10T00:47:23.110Z,12.80
2023-05-10T00:49:54.841Z,12.70
2023-05-10T00:52:26.878Z,12.70
2023-05-10T00:54:58.471Z,12.70
2023-05-10T00:57:30.075Z,12.70
2023-05-10T01:00:04.145Z,12.70
2023-05-10T01:02:37.305Z,12.60
2023-05-10T01:05:09.818Z,12.70
2023-05-10T01:07:42.062Z,12.70
2023-05-10T01:10:14.162Z,12.60
2023-05-10T01:12:48.694Z,12.60
2023-05-10T01:15:22.491Z,12.60
2023-05-10T01:17:55.270Z,12.60
2023-05-10T01:20:29.270Z,12.60
2023-05-10T01:23:26.350Z,12.60
2023-05-10T01:26:43.474Z,12.60
2023-05-10T01:29:23.138Z,12.60
2023-05-10T01:32:18.765Z,12.70
2023-05-10T01:34:56.476Z,12.60
2023-05-10T01:37:39.736Z,12.70
2023-05-10T01:40:19.044Z,12.70
2023-05-10T01:42:53.976Z,12.70
2023-05-10T01:45:31.236Z,12.70
2023-05-10T01:48:08.193Z,12.70
2023-05-10T01:50:42.707Z,12.80
2023-05-10T01:53:17.161Z,12.80
2023-05-10T01:55:51.246Z,12.80
2023-05-10T01:58:25.553Z,12.80
2023-05-10T02:00:58.020Z,12.80
2023-05-10T02:03:31.417Z,12.70
2023-05-10T02:06:04.158Z,12.80
2023-05-10T02:08:36.884Z,12.70
2023-05-10T02:11:09.795Z,12.80
2023-05-10T02:13:44.600Z,12.80
2023-05-10T02:16:18.322Z,12.70
2023-05-10T02:18:51.057Z,12.70
2023-05-10T02:21:24.355Z,12.70
2023-05-10T02:23:57.344Z,12.70
2023-05-10T02:26:29.729Z,12.70
2023-05-10T02:29:04.046Z,12.60
2023-05-10T02:31:37.214Z,12.60
2023-05-10T02:34:10.534Z,12.60
2023-05-10T02:36:43.830Z,12.60
2023-05-10T02:39:16.170Z,12.60
2023-05-10T02:41:48.770Z,12.60
2023-05-10T02:44:22.545Z,12.60
2023-05-10T02:46:55.816Z,12.60
2023-05-10T02:49:27.402Z,12.60
2023-05-10T02:52:03.446Z,12.50
2023-05-10T02:54:38.252Z,12.50
2023-05-10T02:57:12.220Z,12.40
2023-05-10T02:59:44.109Z,12.40
2023-05-10T03:02:18.129Z,12.50
2023-05-10T03:04:49.670Z,12.40
2023-05-10T03:07:22.419Z,12.50
2023-05-10T03:09:53.992Z,12.50
2023-05-10T03:12:29.499Z,12.40
2023-05-10T03:15:05.569Z,12.40
2023-05-10T03:17:40.639Z,12.30
2023-05-10T03:20:15.743Z,12.30
2023-05-10T03:22:49.494Z,12.30
2023-05-10T03:25:23.206Z,12.30
2023-05-10T03:27:56.232Z,12.30
2023-05-10T03:30:28.366Z,12.30
2023-05-10T03:32:59.825Z,12.30
2023-05-10T03:35:31.619Z,12.20
2023-05-10T03:38:03.113Z,12.20
2023-05-10T03:40:34.604Z,12.30
2023-05-10T03:43:06.155Z,12.30
2023-05-10T03:45:37.595Z,12.30
2023-05-10T03:48:09.564Z,12.40
2023-05-10T03:50:41.043Z,12.30
2023-05-10T03:53:13.223Z,12.30
2023-05-10T03:55:44.692Z,12.30
2023-05-10T03:58:16.083Z,12.20
2023-05-10T04:00:47.934Z,12.20
2023-05-10T04:03:19.651Z,12.20
2023-05-10T04:05:51.343Z,12.20
2023-05-10T04:08:22.740Z,12.20
2023-05-10T04:10:54.375Z,12.20
2023-05-10T04:13:26.326Z,12.20
2023-05-10T04:15:57.620Z,12.30
2023-05-10T04:18:29.107Z,12.20
2023-05-10T04:21:00.751Z,12.20
2023-05-10T04:23:32.245Z,12.30
2023-05-10T04:26:05.022Z,12.30
2023-05-10T04:28:36.437Z,12.20
2023-05-10T04:31:09.646Z,12.30
2023-05-10T04:33:41.187Z,12.30
2023-05-10T04:36:12.820Z,12.30
2023-05-10T04:38:45.138Z,12.30
2023-05-10T04:41:16.778Z,12.30
2023-05-10T04:43:49.987Z,12.40
2023-05-10T04:46:21.595Z,12.30
2023-05-10T04:48:53.058Z,12.30
2023-05-10T04:51:24.517Z,12.40
2023-05-10T04:54:05.418Z,12.40
2023-05-10T04:56:29.011Z,12.40
2023-05-10T04:59:00.428Z,12.40
2023-05-10T05:01:32.046Z,12.40
2023-05-10T05:04:03.472Z,12.40
2023-05-10T05:06:34.973Z,12.40
2023-05-10T05:09:06.450Z,12.40
2023-05-10T05:11:38.049Z,12.30
2023-05-10T05:14:09.419Z,12.40
2023-05-10T05:16:40.935Z,12.40
2023-05-10T05:19:13.171Z,12.20
2023-05-10T05:21:45.135Z,12.10
2023-05-10T05:24:19.462Z,12.00
2023-05-10T05:26:51.035Z,11.90
2023-05-10T05:29:23.436Z,11.80
2023-05-10T05:31:55.629Z,11.70
2023-05-10T05:34:28.630Z,11.60
2023-05-10T05:37:00.173Z,11.60
2023-05-10T05:39:31.667Z,11.60
2023-05-10T05:42:04.312Z,11.70
2023-05-10T05:44:36.751Z,11.60
2023-05-10T05:47:08.744Z,11.60
2023-05-10T05:49:40.582Z,11.60
2023-05-10T05:52:12.025Z,11.60
2023-05-10T05:54:43.538Z,11.50
2023-05-10T05:57:15.097Z,11.50
2023-05-10T05:59:47.050Z,11.50
2023-05-10T06:02:18.579Z,11.40
2023-05-10T06:04:51.064Z,11.40
2023-05-10T06:07:22.475Z,11.40
2023-05-10T06:09:54.349Z,11.50
2023-05-10T06:12:25.928Z,11.50
2023-05-10T06:14:57.562Z,11.40
2023-05-10T06:17:29.875Z,11.30
2023-05-10T06:20:01.395Z,11.30
2023-05-10T06:22:32.786Z,11.30
2023-05-10T06:25:04.501Z,11.30
2023-05-10T06:27:35.955Z,11.30
2023-05-10T06:30:13.245Z,11.30
2023-05-10T06:32:47.642Z,11.40
2023-05-10T06:35:19.726Z,11.40
2023-05-10T06:37:51.616Z,11.40
2023-05-10T06:40:23.198Z,11.40
2023-05-10T06:42:55.010Z,11.30
2023-05-10T06:45:26.498Z,11.20
2023-05-10T06:47:58.325Z,11.10
2023-05-10T06:50:29.951Z,11.10
2023-05-10T06:53:02.782Z,11.10
2023-05-10T06:55:34.908Z,11.20
2023-05-10T06:58:07.186Z,11.20
2023-05-10T07:00:41.079Z,11.20
2023-05-10T07:03:12.656Z,11.20
2023-05-10T07:05:44.160Z,11.30
2023-05-10T07:08:15.672Z,11.30
2023-05-10T07:10:47.338Z,11.50
2023-05-10T07:13:18.766Z,11.40
2023-05-10T07:15:51.169Z,11.50
2023-05-10T07:18:22.562Z,11.50
2023-05-10T07:20:54.249Z,11.50
2023-05-10T07:23:26.085Z,11.50
2023-05-10T07:25:58.525Z,11.50
2023-05-10T07:28:29.997Z,11.50
2023-05-10T07:31:02.107Z,11.50
2023-05-10T07:33:33.942Z,11.50
2023-05-10T07:36:05.637Z,11.50
2023-05-10T07:38:38.930Z,11.50
2023-05-10T07:41:10.092Z,11.50
2023-05-10T07:43:41.505Z,11.60
2023-05-10T07:46:13.335Z,11.70
2023-05-10T07:48:44.778Z,11.90
2023-05-10T07:51:16.277Z,12.10
2023-05-10T07:53:47.809Z,12.20
2023-05-10T07:56:28.171Z,12.20
2023-05-10T07:59:01.182Z,12.00
2023-05-10T08:01:34.910Z,12.10
2023-05-10T08:04:06.534Z,12.20
2023-05-10T08:06:38.355Z,12.10
2023-05-10T08:09:11.877Z,12.10
2023-05-10T08:11:43.458Z,11.90
2023-05-10T08:14:15.000Z,11.90
2023-05-10T08:16:46.392Z,12.00
2023-05-10T08:19:20.190Z,12.20
2023-05-10T08:21:51.881Z,12.40
2023-05-10T08:24:23.498Z,12.40
2023-05-10T08:26:55.289Z,12.50
2023-05-10T08:29:28.522Z,12.40
2023-05-10T08:32:01.908Z,12.50
2023-05-10T08:34:33.894Z,12.50
2023-05-10T08:37:05.477Z,12.40
2023-05-10T08:39:38.302Z,12.30
2023-05-10T08:42:11.359Z,12.10
2023-05-10T08:44:44.261Z,12.00
2023-05-10T08:47:18.117Z,11.90
2023-05-10T08:49:52.309Z,11.80
2023-05-10T08:52:26.333Z,11.90
2023-05-10T08:54:57.793Z,11.90
2023-05-10T08:57:39.443Z,11.90
2023-05-10T09:00:13.230Z,11.90
2023-05-10T09:02:46.784Z,11.90
2023-05-10T09:05:18.963Z,11.90
2023-05-10T09:07:51.061Z,12.10
2023-05-10T09:10:23.440Z,12.20
2023-05-10T09:12:56.580Z,12.30
2023-05-10T09:15:29.204Z,12.30
2023-05-10T09:18:02.476Z,12.30
2023-05-10T09:20:34.068Z,12.30
2023-05-10T09:23:06.053Z,12.30
2023-05-10T09:25:39.206Z,12.30
2023-05-10T09:28:27.200Z,12.10
2023-05-10T09:30:59.069Z,12.10
2023-05-10T09:36:57.687Z,12.00
2023-05-10T09:39:37.063Z,12.10
2023-05-10T09:42:10.159Z,12.10
2023-05-10T09:44:43.733Z,12.20
2023-05-10T09:47:19.897Z,12.30
2023-05-10T09:49:53.100Z,12.30
2023-05-10T09:52:24.497Z,12.50
2023-05-10T09:54:56.652Z,12.40
2023-05-10T09:57:28.177Z,12.40
2023-05-10T10:00:01.410Z,12.30
2023-05-10T10:02:32.938Z,12.50
2023-05-10T10:05:06.132Z,12.60
2023-05-10T10:07:38.360Z,12.80
2023-05-10T10:10:13.499Z,12.90
2023-05-10T10:12:45.796Z,12.90
2023-05-10T10:15:17.694Z,13.00
2023-05-10T10:17:50.358Z,13.10
2023-05-10T10:20:24.264Z,13.10
2023-05-10T10:22:55.707Z,13.20
2023-05-10T10:25:31.613Z,13.30
2023-05-10T10:28:21.903Z,13.40
2023-05-10T10:30:56.419Z,13.30
2023-05-10T10:33:45.700Z,13.30
2023-05-10T10:36:18.965Z,13.20
2023-05-10T10:39:05.188Z,13.10
2023-05-10T10:41:38.420Z,13.00
2023-05-10T10:44:32.009Z,12.90
2023-05-10T10:47:08.698Z,12.80
2023-05-10T10:49:48.598Z,12.70
2023-05-10T10:52:27.964Z,12.60
2023-05-10T10:55:04.935Z,12.50
2023-05-10T10:57:46.062Z,12.50
2023-05-10T11:00:42.707Z,12.50
2023-05-10T11:03:16.641Z,12.60
2023-05-10T11:05:48.748Z,12.80
2023-05-10T11:08:23.425Z,12.80
2023-05-10T11:11:16.516Z,12.70
2023-05-10T11:13:51.231Z,12.60
2023-05-10T11:16:25.152Z,12.40
2023-05-10T11:19:08.807Z,12.30
2023-05-10T11:21:49.690Z,12.30
2023-05-10T11:24:23.108Z,12.30
2023-05-10T11:26:55.306Z,12.20
2023-05-10T11:29:28.991Z,12.20
2023-05-10T11:32:01.572Z,12.30
2023-05-10T11:34:35.712Z,12.30
2023-05-10T11:37:07.293Z,12.40
2023-05-10T11:39:38.899Z,12.40
2023-05-10T11:42:12.039Z,12.30
2023-05-10T11:44:45.245Z,12.30
2023-05-10T11:47:16.814Z,12.30
2023-05-10T11:49:48.755Z,12.20
2023-05-10T11:52:21.767Z,12.20
2023-05-10T11:54:56.249Z,12.20
2023-05-10T11:57:31.151Z,12.00
2023-05-10T12:00:04.259Z,11.90
2023-05-10T12:02:36.027Z,11.90
2023-05-10T12:05:09.165Z,12.10
2023-05-10T12:07:40.812Z,12.20
2023-05-10T12:10:16.015Z,12.30
2023-05-10T12:12:49.732Z,12.30
2023-05-10T12:15:23.516Z,12.20
2023-05-10T12:17:55.825Z,12.20
2023-05-10T12:20:29.992Z,12.30
2023-05-10T12:23:04.155Z,12.30
2023-05-10T12:25:37.359Z,12.40
2023-05-10T12:28:10.523Z,12.40
2023-05-10T12:30:42.367Z,12.50
2023-05-10T12:33:17.559Z,12.50
2023-05-10T12:35:51.142Z,12.50
2023-05-10T12:38:34.163Z,12.50
2023-05-10T12:41:07.877Z,12.50
2023-05-10T12:43:40.406Z,12.60
2023-05-10T12:46:13.340Z,12.70
2023-05-10T12:48:46.198Z,12.90
2023-05-10T12:51:19.263Z,13.10
2023-05-10T12:53:50.856Z,13.30
2023-05-10T12:56:22.518Z,13.30
2023-05-10T12:58:53.973Z,13.20
2023-05-10T13:01:25.905Z,13.00
2023-05-10T13:03:57.439Z,12.90
2023-05-10T13:06:29.117Z,12.80
2023-05-10T13:09:01.467Z,12.70
2023-05-10T13:11:32.923Z,12.70
2023-05-10T13:14:05.004Z,12.60
2023-05-10T13:16:37.302Z,12.60
2023-05-10T13:19:08.821Z,12.50
2023-05-10T13:21:41.837Z,12.50
2023-05-10T13:24:14.758Z,12.40
2023-05-10T13:26:46.385Z,12.30
2023-05-10T13:29:18.891Z,12.30
2023-05-10T13:31:50.555Z,12.20
2023-05-10T13:34:22.355Z,12.10
2023-05-10T13:36:56.996Z,12.10
2023-05-10T13:39:28.451Z,12.10
2023-05-10T13:41:59.888Z,12.10
2023-05-10T13:44:31.285Z,12.10
2023-05-10T13:47:02.725Z,12.10
2023-05-10T13:49:34.794Z,12.00
2023-05-10T13:52:07.824Z,11.90
2023-05-10T13:54:39.790Z,11.90
2023-05-10T13:57:12.870Z,11.90
2023-05-10T13:59:44.342Z,11.90
2023-05-10T14:02:15.758Z,11.90
2023-05-10T14:04:47.648Z,11.90
2023-05-10T14:07:19.586Z,12.00
2023-05-10T14:09:50.967Z,12.10
2023-05-10T14:12:22.393Z,12.20
2023-05-10T14:14:53.801Z,12.30
2023-05-10T14:17:25.383Z,12.50
2023-05-10T14:19:56.887Z,12.70
2023-05-10T14:22:28.507Z,12.90
2023-05-10T14:25:00.389Z,13.10
2023-05-10T14:27:31.770Z,13.20
2023-05-10T14:30:03.258Z,13.20
2023-05-10T14:32:36.657Z,13.00
2023-05-10T14:35:12.170Z,13.00
2023-05-10T14:37:42.804Z,12.90
2023-05-10T14:40:16.172Z,12.80
2023-05-10T14:42:47.670Z,12.90
2023-05-10T14:45:19.222Z,13.00
2023-05-10T14:47:51.008Z,12.90
2023-05-10T14:50:35.848Z,12.90
2023-05-10T14:52:55.582Z,12.90
2023-05-10T14:55:27.066Z,13.00
2023-05-10T14:57:59.047Z,13.10
2023-05-10T15:00:33.219Z,13.30
2023-05-10T15:03:05.278Z,13.30
2023-05-10T15:05:38.273Z,13.20
2023-05-10T15:08:10.190Z,13.30
2023-05-10T15:10:41.747Z,13.30
2023-05-10T15:13:13.149Z,13.40
2023-05-10T15:15:47.192Z,13.60
2023-05-10T15:18:18.910Z,13.60
2023-05-10T15:20:50.448Z,13.70
2023-05-10T15:23:21.994Z,13.80
2023-05-10T15:25:55.046Z,13.90
2023-05-10T15:28:26.538Z,14.00
2023-05-10T15:30:58.102Z,14.10
2023-05-10T15:33:29.564Z,14.20
2023-05-10T15:36:00.989Z,14.20
2023-05-10T15:38:32.424Z,14.10
2023-05-10T15:41:03.823Z,14.20
2023-05-10T15:43:35.265Z,14.20
2023-05-10T15:46:07.588Z,14.10
2023-05-10T15:48:40.100Z,14.10
2023-05-10T15:51:11.539Z,14.10
2023-05-10T15:53:56.556Z,14.00
2023-05-10T15:56:17.194Z,13.90
2023-05-10T15:58:48.677Z,13.90
2023-05-10T16:01:20.217Z,13.90
2023-05-10T16:03:51.658Z,13.90
2023-05-10T16:06:23.287Z,13.90
2023-05-10T16:08:54.810Z,13.80
2023-05-10T16:11:26.439Z,13.80
2023-05-10T16:13:57.970Z,13.70
2023-05-10T16:16:29.607Z,13.60
2023-05-10T16:19:01.377Z,13.60
2023-05-10T16:21:33.446Z,13.50
2023-05-10T16:24:06.123Z,13.30
2023-05-10T16:26:39.569Z,13.00
2023-05-10T16:29:11.242Z,12.90
2023-05-10T16:31:42.817Z,12.80
2023-05-10T16:34:14.223Z,12.70
2023-05-10T16:36:45.848Z,12.60
2023-05-10T16:39:17.314Z,12.60
2023-05-10T16:41:48.726Z,12.60
2023-05-10T16:44:21.088Z,12.60
2023-05-10T16:46:54.951Z,12.70
2023-05-10T16:49:27.179Z,12.70
2023-05-10T16:51:58.657Z,12.70
2023-05-10T16:54:31.470Z,12.60
2023-05-10T16:57:02.983Z,12.60
2023-05-10T16:59:34.549Z,12.50
2023-05-10T17:02:07.792Z,12.50
2023-05-10T17:04:39.470Z,12.30
2023-05-10T17:07:11.906Z,12.10
2023-05-10T17:09:44.146Z,11.90
2023-05-10T17:12:15.572Z,11.80
2023-05-10T17:14:47.063Z,11.70
2023-05-10T17:17:18.560Z,11.60
2023-05-10T17:19:50.124Z,11.60
2023-05-10T17:22:21.568Z,11.50
2023-05-10T17:24:53.056Z,11.60
2023-05-10T17:27:24.468Z,11.60
2023-05-10T17:29:59.149Z,11.50
2023-05-10T17:32:30.662Z,11.50
2023-05-10T17:35:02.927Z,11.50
2023-05-10T17:37:34.523Z,11.40
2023-05-10T17:40:08.113Z,11.40
2023-05-10T17:42:39.708Z,11.40
2023-05-10T17:45:12.691Z,11.40
2023-05-10T17:47:44.089Z,11.40
2023-05-10T17:50:15.714Z,11.30
2023-05-10T17:52:48.280Z,11.30
2023-05-10T17:55:20.118Z,11.30
2023-05-10T17:57:52.061Z,11.40
2023-05-10T18:00:24.090Z,11.30
2023-05-10T18:02:55.808Z,11.30
2023-05-10T18:05:27.369Z,11.30
2023-05-10T18:07:59.195Z,11.20
2023-05-10T18:10:30.838Z,11.20
2023-05-10T18:13:05.841Z,11.10
2023-05-10T18:15:37.817Z,11.10
2023-05-10T18:18:10.727Z,11.10
2023-05-10T18:20:42.507Z,11.00
2023-05-10T18:23:14.962Z,11.00
2023-05-10T18:25:46.636Z,11.00
2023-05-10T18:28:18.156Z,10.90
2023-05-10T18:30:49.787Z,10.90
2023-05-10T18:33:21.304Z,10.90
2023-05-10T18:35:53.218Z,10.90
2023-05-10T18:38:24.635Z,10.90
2023-05-10T18:40:57.750Z,10.80
2023-05-10T18:43:29.409Z,10.80
2023-05-10T18:46:01.453Z,10.80
2023-05-10T18:48:32.948Z,10.80
2023-05-10T18:51:04.458Z,10.80
2023-05-10T18:53:36.717Z,10.90
2023-05-10T18:56:08.640Z,10.80
2023-05-10T18:58:40.244Z,10.80
2023-05-10T19:01:11.733Z,10.80
2023-05-10T19:03:43.206Z,10.80
2023-05-10T19:06:14.631Z,10.80
2023-05-10T19:08:46.100Z,10.80
2023-05-10T19:11:17.622Z,10.80
2023-05-10T19:13:49.184Z,10.80
2023-05-10T19:16:23.521Z,10.70
2023-05-10T19:18:56.948Z,10.70
2023-05-10T19:21:28.405Z,10.70
2023-05-10T19:24:01.483Z,10.70
2023-05-10T19:26:32.906Z,10.60
2023-05-10T19:29:04.427Z,10.60
2023-05-10T19:31:35.893Z,10.50
2023-05-10T19:34:07.705Z,10.60
2023-05-10T19:36:39.282Z,10.50
2023-05-10T19:39:10.779Z,10.50
2023-05-10T19:41:42.703Z,10.50
2023-05-10T19:44:14.341Z,10.50
2023-05-10T19:46:46.073Z,10.40
2023-05-10T19:49:17.926Z,10.40
2023-05-10T19:51:50.106Z,10.40
2023-05-10T19:54:25.124Z,10.40
2023-05-10T19:56:57.546Z,10.30
2023-05-10T19:59:29.022Z,10.30
2023-05-10T20:02:00.709Z,10.30
2023-05-10T20:04:32.174Z,10.40
2023-05-10T20:07:03.584Z,10.40
2023-05-10T20:09:35.235Z,10.40
2023-05-10T20:12:06.817Z,10.30
2023-05-10T20:14:38.812Z,10.30
2023-05-10T20:17:10.347Z,10.40
2023-05-10T20:19:42.155Z,10.30
2023-05-10T20:22:13.641Z,10.30
2023-05-10T20:24:45.615Z,10.30
2023-05-10T20:27:17.073Z,10.30
2023-05-10T20:29:48.553Z,10.30
2023-05-10T20:32:20.260Z,10.30
2023-05-10T20:34:51.828Z,10.30
2023-05-10T20:37:42.139Z,10.20
2023-05-10T20:40:14.497Z,10.20
2023-05-10T20:42:46.108Z,10.20
2023-05-10T20:45:17.851Z,10.20
2023-05-10T20:47:49.354Z,10.20
2023-05-10T20:50:20.937Z,10.10
2023-05-10T20:52:52.822Z,10.10
2023-05-10T20:55:24.306Z,10.10
2023-05-10T20:57:55.779Z,10.10
2023-05-10T21:00:29.780Z,10.10
2023-05-10T21:03:02.503Z,10.10
2023-05-10T21:05:34.116Z,10.10
2023-05-10T21:08:05.752Z,10.10
2023-05-10T21:10:37.262Z,10.10
2023-05-10T21:13:08.791Z,10.10
2023-05-10T21:15:40.565Z,10.10
2023-05-10T21:18:14.311Z,10.10
2023-05-10T21:20:45.706Z,10.10
2023-05-10T21:23:17.242Z,10.10
2023-05-10T21:25:48.644Z,10.10
2023-05-10T21:28:20.295Z,10.10
2023-05-10T21:30:52.227Z,10.10
2023-05-10T21:33:23.786Z,10.10
2023-05-10T21:35:55.299Z,10.10
2023-05-10T21:38:28.090Z,10.00
2023-05-10T21:40:59.518Z,10.00
2023-05-10T21:43:31.620Z,9.90
2023-05-10T21:46:03.198Z,9.90
2023-05-10T21:48:34.829Z,9.90
2023-05-10T21:51:06.703Z,9.90
2023-05-10T21:53:40.357Z,9.80
2023-05-10T21:56:11.992Z,9.90
2023-05-10T21:58:43.523Z,9.90
2023-05-10T22:01:17.001Z,9.80
2023-05-10T22:03:48.606Z,9.80
2023-05-10T22:06:20.070Z,9.80
2023-05-10T22:08:51.926Z,9.80
2023-05-10T22:11:24.068Z,9.80
2023-05-10T22:13:55.556Z,9.80
2023-05-10T22:16:27.228Z,9.80
2023-05-10T22:18:58.801Z,9.80
2023-05-10T22:21:30.721Z,9.80
2023-05-10T22:24:02.183Z,9.80
2023-05-10T22:26:33.620Z,9.80
2023-05-10T22:29:05.141Z,9.80
2023-05-10T22:31:36.802Z,9.90
2023-05-10T22:34:08.383Z,9.90
2023-05-10T22:36:39.791Z,9.80
2023-05-10T22:39:11.652Z,9.90
2023-05-10T22:41:43.024Z,9.90
2023-05-10T22:44:14.539Z,9.80
2023-05-10T22:46:46.136Z,9.80
2023-05-10T22:49:17.798Z,9.80
2023-05-10T22:51:49.184Z,9.80
2023-05-10T22:54:20.746Z,9.80
2023-05-10T22:56:52.827Z,9.70
2023-05-10T22:59:24.578Z,9.70
2023-05-10T23:01:56.337Z,9.70
2023-05-10T23:04:27.906Z,9.70
2023-05-10T23:06:59.549Z,9.70
2023-05-10T23:09:32.265Z,9.70
2023-05-10T23:12:03.986Z,9.70
2023-05-10T23:14:35.517Z,9.70
2023-05-10T23:17:07.151Z,9.70
2023-05-10T23:19:38.652Z,9.70
2023-05-10T23:22:10.635Z,9.70
2023-05-10T23:24:42.120Z,9.70
2023-05-10T23:27:14.520Z,9.70
2023-05-10T23:29:45.969Z,9.70
2023-05-10T23:32:17.672Z,9.70
2023-05-10T23:34:49.402Z,9.70
2023-05-10T23:37:21.157Z,9.70
2023-05-10T23:39:52.869Z,9.70
2023-05-10T23:42:24.497Z,9.70
2023-05-10T23:44:56.046Z,9.70
2023-05-10T23:47:27.652Z,9.70
2023-05-10T23:49:59.120Z,9.70
2023-05-10T23:52:30.972Z,9.70
2023-05-10T23:55:02.448Z,9.70
2023-05-10T23:57:34.278Z,9.60
